Poltava, Ukraine
Current Conditions -  °F | °C
As of 8:30 AM on Friday 31 Oct 2014 (Local Time) from UKHH Reporting Station
Haze Haze  
Wind Chill: 34°   Ceiling: Unl
Heat Index: 34°   Visibility: 1.6mi
Dew Point: 27°   Wind: 0mph
Humidity: 75%   Direction: NA
Pressure: 30.15"   Gusts: NA
Location:  49.58°N, 34.57°E
Report Text: UKHH 310530Z 00000MPS 2600 BR NSC 01/M03 Q1021 250///65 BECMG 2100 BKN007
Loading
Personal Weather Stations






























Interactive Weather Map
Tropical Storm Tracking
New forecast layout! Learn more

10-Day Weather Forecast

Advertisements
Track Severe Weather on mobile